South Lake Tahoe, CA

1:25 PM PDT on August 27, 2016 (GMT -0700)
North Upper Truckee Burn | | Change Station

Elev 6476 ft 38.88 °N, 120.04 °W | Updated 6 seconds ago

Clear
Clear
75.9 °F
Feels Like 75 °F
N
1.8
Wind Variable Wind from SW
Gusts 4.9 mph

Today
High -- | Low -- °F
--% Chance of Precip.
Yesterday
High -- | Low -- °F
Precip. -- in
Pressure 30.03 in
Visibility 10.0 miles
Clouds Clear
Heat Index 75 °F
Dew Point 15 °F
Humidity 10%
Rainfall 0.00 in
Snow Depth Not available.
6:25 AM 7:37 PM
Waning Crescent, 22% visible
METAR KTVL 271953Z AUTO 03009KT 10SM CLR 24/01 A3019 RMK AO2 SLP169 T02440011
Pressure 30.03 in
Visibility 10.0 miles
Clouds Clear
Heat Index 75 °F
Dew Point 15 °F
Humidity 10%
Rainfall 0.00 in
Snow Depth Not available.
6:25 AM 7:37 PM
Waning Crescent, 22% visible
METAR KTVL 271953Z AUTO 03009KT 10SM CLR 24/01 A3019 RMK AO2 SLP169 T02440011

10-Day Weather Forecast

Almanac

Astronomy

Aug. 27, 2016 Rise Set
Actual Time
Civil Twilight
Nautical Twilight
Astronomical Twilight
Moon
Length of Visible Light
Length of Day
Tomorrow will be .
, % of the Moon is Illuminated

Today's Extremes

State Highs State Lows

Community

WunderPhotos

Upload Photos

1,935,434 photos uploaded!

WunderBlog® & News

Nearby

Air Quality

  Air Quality AQ Index Pollutant
Not available.

Snow Depth

Station Depth Elevation

Earthquake Activity

City Distance Mag. Time & Date
Minimum magnitude displayed is 2.5.

Coastal Water Temperatures

Place Temperature

Stations

Nearby Weather Stations

Station Location Temp. Windchill Dew Point Humidity Wind Precip. Elev Updated Type
                   

Watches & Warnings

There are currently no watches in effect.